createdAt,value
2023-04-09T00:02:27.639Z,101887.59
2023-04-09T00:07:29.337Z,101890.50
2023-04-09T00:12:31.002Z,101875.25
2023-04-09T00:17:32.612Z,101875.94
2023-04-09T00:22:34.333Z,101880.88
2023-04-09T00:27:35.931Z,101877.16
2023-04-09T00:32:38.004Z,101883.91
2023-04-09T00:37:39.917Z,101882.38
2023-04-09T00:42:41.783Z,101886.25
2023-04-09T00:47:43.693Z,101876.09
2023-04-09T00:52:45.638Z,101886.53
2023-04-09T00:57:49.840Z,101875.41
2023-04-09T01:02:51.481Z,101880.06
2023-04-09T01:08:24.227Z,101877.84
2023-04-09T01:13:50.535Z,101876.00
2023-04-09T01:18:59.367Z,101864.94
2023-04-09T01:24:42.684Z,101867.91
2023-04-09T01:29:48.273Z,101870.94
2023-04-09T01:34:51.976Z,101866.41
2023-04-09T01:39:53.979Z,101860.31
2023-04-09T01:44:57.743Z,101864.91
2023-04-09T01:49:59.991Z,101866.94
2023-04-09T01:55:01.670Z,101863.78
2023-04-09T02:00:04.680Z,101869.75
2023-04-09T02:05:20.162Z,101871.09
2023-04-09T02:10:26.420Z,101865.19
2023-04-09T02:15:31.294Z,101865.56
2023-04-09T02:20:32.970Z,101857.94
2023-04-09T02:25:34.844Z,101856.94
2023-04-09T02:30:36.469Z,101856.41
2023-04-09T02:35:38.483Z,101856.41
2023-04-09T02:40:40.838Z,101846.84
2023-04-09T02:45:42.552Z,101844.56
2023-04-09T02:50:44.193Z,101847.34
2023-04-09T02:55:45.755Z,101848.78
2023-04-09T03:00:47.357Z,101849.63
2023-04-09T03:05:49.021Z,101839.22
2023-04-09T03:10:50.656Z,101831.63
2023-04-09T03:15:53.600Z,101832.28
2023-04-09T03:20:55.353Z,101836.75
2023-04-09T03:26:04.821Z,101827.50
2023-04-09T03:31:12.793Z,101825.19
2023-04-09T03:36:16.135Z,101821.53
2023-04-09T03:41:38.056Z,101824.84
2023-04-09T03:46:46.657Z,101823.59
2023-04-09T03:51:51.990Z,101816.34
2023-04-09T03:56:54.581Z,101814.06
2023-04-09T04:01:59.059Z,101822.72
2023-04-09T04:07:03.783Z,101821.06
2023-04-09T04:12:10.214Z,101819.06
2023-04-09T04:17:35.372Z,101821.69
2023-04-09T04:22:39.416Z,101823.16
2023-04-09T04:27:43.973Z,101811.91
2023-04-09T04:32:48.294Z,101815.88
2023-04-09T04:37:50.776Z,101815.81
2023-04-09T04:42:52.863Z,101810.84
2023-04-09T04:47:54.620Z,101814.09
2023-04-09T04:52:56.399Z,101824.22
2023-04-09T04:58:02.312Z,101820.34
2023-04-09T05:03:12.505Z,101826.44
2023-04-09T05:08:22.495Z,101830.16
2023-04-09T05:13:27.445Z,101825.91
2023-04-09T05:18:29.361Z,101826.47
2023-04-09T05:23:30.941Z,101835.84
2023-04-09T05:28:32.883Z,101841.38
2023-04-09T05:33:48.929Z,101840.44
2023-04-09T05:38:56.443Z,101837.84
2023-04-09T05:44:00.622Z,101835.75
2023-04-09T05:49:03.654Z,101842.75
2023-04-09T05:54:07.078Z,101842.50
2023-04-09T05:59:12.100Z,101835.25
2023-04-09T06:04:14.418Z,101848.44
2023-04-09T06:09:16.290Z,101852.59
2023-04-09T06:14:18.599Z,101842.13
2023-04-09T06:19:20.352Z,101843.19
2023-04-09T06:24:22.012Z,101852.69
2023-04-09T06:29:24.411Z,101854.31
2023-04-09T06:34:26.137Z,101847.66
2023-04-09T06:39:27.864Z,101852.38
2023-04-09T06:44:30.273Z,101855.19
2023-04-09T06:49:32.098Z,101859.41
2023-04-09T06:54:33.742Z,101867.94
2023-04-09T06:59:35.296Z,101875.03
2023-04-09T07:04:37.251Z,101873.81
2023-04-09T07:09:38.886Z,101877.91
2023-04-09T07:14:40.565Z,101878.78
2023-04-09T07:19:42.217Z,101885.31
2023-04-09T07:24:43.803Z,101882.66
2023-04-09T07:29:45.728Z,101886.28
2023-04-09T07:34:47.679Z,101888.94
2023-04-09T07:39:50.339Z,101885.22
2023-04-09T07:44:52.009Z,101886.06
2023-04-09T07:49:53.587Z,101886.97
2023-04-09T07:54:55.617Z,101889.69
2023-04-09T07:59:57.608Z,101890.34
2023-04-09T08:04:59.676Z,101894.06
2023-04-09T08:10:01.521Z,101895.50
2023-04-09T08:15:03.253Z,101901.25
2023-04-09T08:20:05.577Z,101894.22
2023-04-09T08:25:07.609Z,101896.53
2023-04-09T08:30:09.792Z,101903.34
2023-04-09T08:35:11.762Z,101898.41
2023-04-09T08:40:13.544Z,101894.28
2023-04-09T08:45:19.545Z,101897.47
2023-04-09T08:50:21.115Z,101897.72
2023-04-09T08:55:22.810Z,101894.88
2023-04-09T09:00:24.532Z,101902.59
2023-04-09T09:05:55.844Z,101903.41
2023-04-09T09:10:57.470Z,101889.09
2023-04-09T09:16:15.332Z,101896.72
2023-04-09T09:21:17.870Z,101896.97
2023-04-09T09:26:24.955Z,101884.75
2023-04-09T09:31:26.988Z,101882.84
2023-04-09T09:36:34.045Z,101883.75
2023-04-09T09:41:36.704Z,101878.47
2023-04-09T09:46:40.114Z,101865.72
2023-04-09T09:51:42.944Z,101862.59
2023-04-09T09:56:45.279Z,101862.16
2023-04-09T10:01:48.292Z,101861.81
2023-04-09T10:06:53.334Z,101851.00
2023-04-09T10:11:57.923Z,101848.56
2023-04-09T10:17:00.010Z,101849.03
2023-04-09T10:22:12.912Z,101848.50
2023-04-09T10:27:17.368Z,101841.81
2023-04-09T10:32:23.912Z,101845.69
2023-04-09T10:37:26.786Z,101842.13
2023-04-09T10:42:44.265Z,101832.44
2023-04-09T10:47:50.186Z,101836.16
2023-04-09T10:52:55.836Z,101833.19
2023-04-09T10:57:57.966Z,101826.47
2023-04-09T11:03:25.657Z,101819.13
2023-04-09T11:08:33.960Z,101820.03
2023-04-09T11:13:35.621Z,101815.81
2023-04-09T11:18:37.533Z,101806.75
2023-04-09T11:23:39.150Z,101804.09
2023-04-09T11:28:43.347Z,101789.97
2023-04-09T11:33:47.971Z,101790.59
2023-04-09T11:38:49.849Z,101797.53
2023-04-09T11:43:52.102Z,101788.06
2023-04-09T11:48:54.381Z,101794.84
2023-04-09T11:53:56.064Z,101788.16
2023-04-09T11:58:58.153Z,101789.97
2023-04-09T12:04:00.776Z,101791.22
2023-04-09T12:09:02.480Z,101795.41
2023-04-09T12:14:07.599Z,101794.88
2023-04-09T12:19:10.468Z,101785.31
2023-04-09T12:24:12.169Z,101778.94
2023-04-09T12:29:18.922Z,101777.41
2023-04-09T12:34:20.647Z,101780.66
2023-04-09T12:39:22.429Z,101778.25
2023-04-09T12:44:24.105Z,101765.97
2023-04-09T12:49:26.102Z,101772.78
2023-04-09T12:54:27.797Z,101771.72
2023-04-09T12:59:29.350Z,101762.22
2023-04-09T13:04:31.150Z,101764.59
2023-04-09T13:09:33.359Z,101751.78
2023-04-09T13:14:35.145Z,101754.78
2023-04-09T13:19:36.773Z,101744.19
2023-04-09T13:24:38.711Z,101748.81
2023-04-09T13:29:40.433Z,101741.19
2023-04-09T13:34:42.104Z,101743.53
2023-04-09T13:39:47.082Z,101746.06
2023-04-09T13:44:48.772Z,101750.75
2023-04-09T13:49:50.363Z,101736.22
2023-04-09T13:54:51.898Z,101737.69
2023-04-09T13:59:53.521Z,101735.38
2023-04-09T14:04:56.056Z,101741.22
2023-04-09T14:09:57.933Z,101734.88
2023-04-09T14:14:59.892Z,101718.44
2023-04-09T14:20:01.729Z,101709.69
2023-04-09T14:25:03.658Z,101708.47
2023-04-09T14:30:05.723Z,101700.00
2023-04-09T14:35:07.597Z,101697.00
2023-04-09T14:40:09.672Z,101689.19
2023-04-09T14:45:11.697Z,101695.72
2023-04-09T14:50:13.446Z,101696.31
2023-04-09T14:55:15.713Z,101679.63
2023-04-09T15:00:17.332Z,101687.28
2023-04-09T15:05:18.960Z,101684.59
2023-04-09T15:10:20.744Z,101690.84
2023-04-09T15:15:22.492Z,101688.16
2023-04-09T15:20:25.236Z,101674.63
2023-04-09T15:25:26.757Z,101678.19
2023-04-09T15:30:28.556Z,101682.28
2023-04-09T15:35:30.130Z,101682.00
2023-04-09T15:40:31.922Z,101680.53
2023-04-09T15:45:33.645Z,101677.56
2023-04-09T15:50:35.497Z,101671.31
2023-04-09T15:55:37.255Z,101679.84
2023-04-09T16:00:38.826Z,101669.44
2023-04-09T16:05:40.605Z,101663.91
2023-04-09T16:10:42.302Z,101676.94
2023-04-09T16:15:43.871Z,101675.38
2023-04-09T16:20:45.518Z,101679.78
2023-04-09T16:25:47.202Z,101675.84
2023-04-09T16:30:52.624Z,101666.75
2023-04-09T16:35:54.462Z,101660.44
2023-04-09T16:40:56.161Z,101661.50
2023-04-09T16:45:58.886Z,101664.94
2023-04-09T16:51:00.674Z,101659.88
2023-04-09T16:56:03.882Z,101659.22
2023-04-09T17:01:05.762Z,101636.03
2023-04-09T17:06:07.625Z,101625.69
2023-04-09T17:11:09.188Z,101620.78
2023-04-09T17:16:10.810Z,101610.56
2023-04-09T17:21:12.355Z,101605.66
2023-04-09T17:26:13.949Z,101620.31
2023-04-09T17:31:15.749Z,101627.56
2023-04-09T17:36:18.512Z,101635.63
2023-04-09T17:41:20.223Z,101628.75
2023-04-09T17:46:21.888Z,101631.16
2023-04-09T17:51:23.650Z,101635.19
2023-04-09T17:56:25.162Z,101640.09
2023-04-09T18:01:26.950Z,101644.72
2023-04-09T18:06:28.624Z,101641.72
2023-04-09T18:11:30.240Z,101637.41
2023-04-09T18:16:31.964Z,101633.41
2023-04-09T18:21:34.228Z,101623.03
2023-04-09T18:26:35.845Z,101631.44
2023-04-09T18:31:37.482Z,101634.63
2023-04-09T18:36:39.049Z,101640.50
2023-04-09T18:41:42.340Z,101635.31
2023-04-09T18:46:44.013Z,101640.25
2023-04-09T18:51:45.763Z,101638.94
2023-04-09T18:56:47.368Z,101634.03
2023-04-09T19:01:49.066Z,101634.84
2023-04-09T19:06:50.931Z,101647.09
2023-04-09T19:11:52.625Z,101654.81
2023-04-09T19:16:54.374Z,101658.91
2023-04-09T19:21:56.162Z,101659.91
2023-04-09T19:26:57.674Z,101661.97
2023-04-09T19:31:59.312Z,101646.47
2023-04-09T19:37:00.973Z,101654.03
2023-04-09T19:42:02.628Z,101640.75
2023-04-09T19:47:04.166Z,101645.50
2023-04-09T19:52:05.791Z,101648.97
2023-04-09T19:57:07.313Z,101650.81
2023-04-09T20:02:08.974Z,101650.06
2023-04-09T20:07:10.604Z,101645.59
2023-04-09T20:12:12.630Z,101650.09
2023-04-09T20:17:14.185Z,101652.00
2023-04-09T20:22:16.077Z,101655.63
2023-04-09T20:27:17.748Z,101648.69
2023-04-09T20:32:19.784Z,101648.63
2023-04-09T20:37:21.631Z,101647.47
2023-04-09T20:42:23.409Z,101638.56
2023-04-09T20:47:25.028Z,101650.19
2023-04-09T20:52:27.486Z,101639.22
2023-04-09T20:57:29.002Z,101630.00
2023-04-09T21:02:30.846Z,101637.75
2023-04-09T21:07:32.554Z,101642.16
2023-04-09T21:12:34.145Z,101631.00
2023-04-09T21:17:35.717Z,101625.72
2023-04-09T21:22:37.272Z,101621.66
2023-04-09T21:27:38.822Z,101635.84
2023-04-09T21:32:40.557Z,101621.59
2023-04-09T21:37:42.230Z,101621.78
2023-04-09T21:42:43.794Z,101626.16
2023-04-09T21:47:45.454Z,101624.66
2023-04-09T21:52:50.023Z,101620.94
2023-04-09T21:57:51.692Z,101627.03
2023-04-09T22:02:53.322Z,101619.75
2023-04-09T22:07:55.807Z,101611.81
2023-04-09T22:12:57.404Z,101608.38
2023-04-09T22:17:59.060Z,101603.44
2023-04-09T22:23:00.592Z,101604.81
2023-04-09T22:28:02.386Z,101608.25
2023-04-09T22:33:04.069Z,101609.19
2023-04-09T22:38:05.598Z,101622.66
2023-04-09T22:43:07.254Z,101631.97
2023-04-09T22:48:08.806Z,101643.91
2023-04-09T22:53:10.390Z,101652.97
2023-04-09T22:58:12.012Z,101641.28
2023-04-09T23:03:13.674Z,101650.09
2023-04-09T23:08:15.241Z,101642.94
2023-04-09T23:13:16.799Z,101655.78
2023-04-09T23:18:18.305Z,101651.91
2023-04-09T23:23:19.884Z,101645.59
2023-04-09T23:28:21.389Z,101644.44
2023-04-09T23:33:23.377Z,101644.91
2023-04-09T23:38:24.930Z,101636.63
2023-04-09T23:43:26.482Z,101624.44
2023-04-09T23:48:28.016Z,101634.03
2023-04-09T23:53:30.609Z,101632.28
2023-04-09T23:58:32.158Z,101631.16
